Time;durP1;ratioP1;P1;durP2;ratioP2;P2;SDS_P1;SDS_P2;PMS_P1;PMS_P2;Temp;Humidity;BMP_temperature;BMP_pressure;BME280_temperature;BME280_humidity;BME280_pressure;Samples;Min_cycle;Max_cycle;Signal;HPM_P1;HPM_P2
2022/03/19 00:01:54;;;;;;;92.70;38.30;;;;;;;-1.36;53.20;102881.81;105638;1271;26991;-57
2022/03/19 00:04:26;;;;;;;83.70;35.70;;;;;;;-1.40;53.19;102882.20;105921;1271;22591;-56
2022/03/19 00:06:57;;;;;;;84.80;35.50;;;;;;;-1.43;53.38;102886.20;105576;1271;22637;-56
2022/03/19 00:09:30;;;;;;;84.60;37.00;;;;;;;-1.43;53.21;102884.13;105946;1270;22688;-54
2022/03/19 00:12:03;;;;;;;87.00;39.20;;;;;;;-1.44;53.18;102882.04;105582;1271;22672;-54
2022/03/19 00:14:35;;;;;;;89.90;36.60;;;;;;;-1.44;53.25;102882.36;105636;1271;24444;-57
2022/03/19 00:17:07;;;;;;;84.30;35.30;;;;;;;-1.48;53.21;102879.16;105750;1271;25479;-54
2022/03/19 00:19:39;;;;;;;81.40;35.40;;;;;;;-1.50;53.35;102881.73;105598;1271;22648;-56
2022/03/19 00:22:11;;;;;;;83.80;35.20;;;;;;;-1.54;53.39;102879.89;105680;1271;22552;-56
2022/03/19 00:24:44;;;;;;;70.70;32.70;;;;;;;-1.56;53.87;102885.64;105819;1271;24262;-55
2022/03/19 00:27:15;;;;;;;75.90;32.50;;;;;;;-1.60;54.20;102885.12;105646;1271;24333;-56
2022/03/19 00:29:47;;;;;;;78.80;32.70;;;;;;;-1.63;54.47;102887.04;105639;1271;25517;-54
2022/03/19 00:32:19;;;;;;;79.00;32.20;;;;;;;-1.69;54.89;102887.52;105590;1271;22722;-57
2022/03/19 00:34:51;;;;;;;77.20;35.80;;;;;;;-1.74;54.73;102881.75;105534;1271;22711;-55
2022/03/19 00:37:23;;;;;;;77.60;36.00;;;;;;;-1.78;54.74;102880.35;105670;1271;22572;-54
2022/03/19 00:39:54;;;;;;;93.40;41.30;;;;;;;-1.82;54.87;102877.29;105628;1271;22715;-57
2022/03/19 00:42:27;;;;;;;77.80;34.20;;;;;;;-1.87;55.26;102881.41;105658;1271;22811;-56
2022/03/19 00:44:58;;;;;;;75.00;32.90;;;;;;;-1.91;55.46;102880.48;105570;1271;22682;-56
2022/03/19 00:47:30;;;;;;;90.00;36.70;;;;;;;-1.95;55.58;102881.36;105683;1271;24173;-57
2022/03/19 00:50:02;;;;;;;75.00;33.10;;;;;;;-1.97;55.45;102872.62;105612;1270;22709;-57
2022/03/19 00:52:36;;;;;;;68.90;33.40;;;;;;;-1.97;55.38;102866.77;105676;1270;25618;-54
2022/03/19 00:55:09;;;;;;;86.80;36.30;;;;;;;-1.97;55.50;102868.10;105718;1271;22641;-57
2022/03/19 00:57:46;;;;;;;82.70;35.30;;;;;;;-1.99;55.78;102868.95;105742;1271;22713;-56
2022/03/19 01:00:24;;;;;;;90.50;37.70;;;;;;;-2.02;56.26;102865.36;105630;1270;22647;-54
2022/03/19 01:02:57;;;;;;;74.40;33.20;;;;;;;-2.05;56.25;102862.38;105701;1271;22781;-56
2022/03/19 01:05:29;;;;;;;81.00;34.80;;;;;;;-2.06;56.27;102857.94;105600;1271;24300;-57
2022/03/19 01:08:01;;;;;;;84.50;35.70;;;;;;;-2.09;56.35;102853.99;105588;1270;22728;-58
2022/03/19 01:10:35;;;;;;;83.70;37.10;;;;;;;-2.13;56.34;102850.33;105630;1271;24520;-57
2022/03/19 01:13:07;;;;;;;87.50;39.20;;;;;;;-2.17;56.42;102850.45;105591;1271;22874;-57
2022/03/19 01:15:39;;;;;;;77.60;34.80;;;;;;;-2.19;56.45;102847.96;105669;1271;25790;-55
2022/03/19 01:18:11;;;;;;;78.20;37.70;;;;;;;-2.20;56.46;102852.06;105649;1271;22684;-57
2022/03/19 01:20:43;;;;;;;90.80;40.60;;;;;;;-2.20;56.38;102849.94;105691;1270;22840;-56
2022/03/19 01:23:14;;;;;;;86.50;37.60;;;;;;;-2.22;56.64;102855.24;105687;1270;22713;-56
2022/03/19 01:25:46;;;;;;;90.10;36.50;;;;;;;-2.26;56.78;102849.15;105674;1270;22571;-53
2022/03/19 01:28:18;;;;;;;97.40;37.30;;;;;;;-2.26;56.98;102849.94;105649;1270;25644;-55
2022/03/19 01:30:50;;;;;;;83.90;35.90;;;;;;;-2.27;57.18;102853.09;105666;1271;25541;-56
2022/03/19 01:33:22;;;;;;;92.10;40.90;;;;;;;-2.27;57.25;102859.98;105585;1271;22746;-56
2022/03/19 01:35:54;;;;;;;92.80;40.30;;;;;;;-2.23;57.30;102861.30;105709;1270;22615;-56
2022/03/19 01:38:26;;;;;;;101.10;41.60;;;;;;;-2.18;57.51;102857.95;105587;1271;22779;-56
2022/03/19 01:40:59;;;;;;;102.10;42.80;;;;;;;-2.12;57.38;102857.72;105921;1271;24427;-56
2022/03/19 01:43:30;;;;;;;88.80;41.70;;;;;;;-2.06;57.13;102854.98;105960;1271;22548;-56
2022/03/19 01:46:02;;;;;;;99.70;44.10;;;;;;;-2.02;57.41;102854.77;105853;1272;24815;-54
2022/03/19 01:48:34;;;;;;;108.50;42.70;;;;;;;-2.01;57.27;102856.52;106121;1271;23108;-58
2022/03/19 01:51:06;;;;;;;100.00;42.20;;;;;;;-2.00;57.12;102851.48;106331;1271;22810;-57
2022/03/19 01:53:39;;;;;;;104.90;45.40;;;;;;;-1.99;57.41;102855.44;105987;1271;23206;-57
2022/03/19 01:56:12;;;;;;;100.10;43.20;;;;;;;-1.98;57.33;102848.43;105704;1270;24320;-55
2022/03/19 01:58:44;;;;;;;107.90;46.00;;;;;;;-1.97;57.49;102849.08;105627;1271;22703;-56
2022/03/19 02:01:17;;;;;;;104.50;47.90;;;;;;;-1.99;57.61;102851.27;105574;1271;22604;-55
2022/03/19 02:03:49;;;;;;;109.20;45.50;;;;;;;-2.01;57.63;102845.27;105641;1270;22763;-57
2022/03/19 02:06:23;;;;;;;95.40;42.30;;;;;;;-2.01;57.62;102844.07;105738;1271;22799;-57
2022/03/19 02:08:55;;;;;;;103.00;44.90;;;;;;;-2.01;57.79;102842.12;105755;1271;23070;-58
2022/03/19 02:11:27;;;;;;;108.50;44.90;;;;;;;-2.04;57.72;102842.38;105817;1271;25535;-55
2022/03/19 02:14:00;;;;;;;95.50;44.80;;;;;;;-2.06;57.87;102839.55;105615;1270;24336;-57
2022/03/19 02:16:32;;;;;;;99.40;43.00;;;;;;;-2.06;57.92;102838.88;105566;1270;25606;-57
2022/03/19 02:19:03;;;;;;;95.60;42.80;;;;;;;-2.03;58.01;102837.33;105668;1271;24280;-57
2022/03/19 02:21:44;;;;;;;94.10;41.90;;;;;;;-2.02;58.15;102834.31;105621;1271;22689;-54
2022/03/19 02:27:04;;;;;;;100.10;40.70;;;;;;;-2.01;58.32;102830.00;105588;1271;27024;-54
2022/03/19 02:29:36;;;;;;;92.50;42.00;;;;;;;-2.01;58.37;102826.81;105680;1271;24270;-54
2022/03/19 02:32:19;;;;;;;97.30;42.40;;;;;;;-2.00;58.40;102828.96;105839;1271;22674;-55
2022/03/19 02:34:51;;;;;;;89.80;39.90;;;;;;;-1.99;58.41;102825.84;105610;1270;22712;-55
2022/03/19 02:37:23;;;;;;;88.70;38.80;;;;;;;-1.98;58.56;102826.22;105606;1271;23931;-58
2022/03/19 02:39:55;;;;;;;87.60;39.90;;;;;;;-1.97;58.46;102824.77;105675;1271;22770;-58
2022/03/19 02:42:28;;;;;;;96.50;39.50;;;;;;;-1.96;58.48;102824.05;105769;1270;22683;-56
2022/03/19 02:45:00;;;;;;;99.50;41.60;;;;;;;-1.94;58.59;102823.23;105786;1270;22818;-55
2022/03/19 02:47:31;;;;;;;95.40;42.00;;;;;;;-1.93;58.64;102821.06;105626;1271;22660;-55
2022/03/19 02:50:04;;;;;;;86.40;38.40;;;;;;;-1.92;58.93;102819.53;105553;1271;25565;-56
2022/03/19 02:52:36;;;;;;;89.50;38.00;;;;;;;-1.92;58.93;102814.96;105786;1270;22957;-58
2022/03/19 02:55:10;;;;;;;96.80;40.30;;;;;;;-1.89;58.83;102818.11;105753;1271;22693;-57
2022/03/19 02:57:42;;;;;;;91.00;36.60;;;;;;;-1.85;59.03;102821.27;105704;1271;24264;-57
2022/03/19 03:00:16;;;;;;;90.40;40.20;;;;;;;-1.81;59.03;102818.41;105639;1270;22774;-57
2022/03/19 03:02:50;;;;;;;91.60;41.00;;;;;;;-1.76;59.26;102822.63;105615;1271;25584;-56
2022/03/19 03:05:22;;;;;;;96.90;43.00;;;;;;;-1.73;59.25;102824.53;105574;1271;22726;-56
2022/03/19 03:07:53;;;;;;;91.50;41.10;;;;;;;-1.72;59.17;102821.20;105617;1271;22702;-56
2022/03/19 03:10:28;;;;;;;93.20;41.20;;;;;;;-1.69;59.30;102816.31;105609;1271;22701;-56
2022/03/19 03:13:00;;;;;;;88.70;40.10;;;;;;;-1.67;59.43;102818.20;105751;1271;25429;-57
2022/03/19 03:15:32;;;;;;;93.30;42.70;;;;;;;-1.67;59.48;102814.66;106026;1271;24238;-56
2022/03/19 03:18:04;;;;;;;92.70;42.40;;;;;;;-1.67;59.52;102817.17;105833;1271;22652;-57
2022/03/19 03:20:37;;;;;;;95.50;40.30;;;;;;;-1.68;59.67;102814.56;105540;1271;22784;-56
2022/03/19 03:23:09;;;;;;;82.30;38.80;;;;;;;-1.69;59.86;102817.57;105858;1270;22736;-58
2022/03/19 03:25:41;;;;;;;94.50;42.60;;;;;;;-1.67;60.03;102821.92;105891;1270;24310;-55
2022/03/19 03:28:13;;;;;;;88.90;40.60;;;;;;;-1.65;59.79;102826.16;105697;1271;22679;-55
2022/03/19 03:30:45;;;;;;;94.40;42.00;;;;;;;-1.63;59.98;102819.27;105976;1271;24277;-55
2022/03/19 03:33:18;;;;;;;97.10;39.50;;;;;;;-1.61;59.93;102820.65;105712;1271;23180;-56
2022/03/19 03:35:51;;;;;;;83.80;37.60;;;;;;;-1.60;59.92;102821.80;105818;1270;25394;-55
2022/03/19 03:38:23;;;;;;;91.00;40.60;;;;;;;-1.60;59.88;102821.73;105637;1271;23936;-54
2022/03/19 03:40:55;;;;;;;92.00;40.40;;;;;;;-1.59;59.93;102820.73;105849;1270;24351;-59
2022/03/19 03:43:27;;;;;;;91.50;36.40;;;;;;;-1.59;59.99;102821.38;105737;1271;22753;-57
2022/03/19 03:46:00;;;;;;;90.90;41.70;;;;;;;-1.59;60.05;102820.88;105760;1271;22768;-55
2022/03/19 03:48:34;;;;;;;90.70;40.40;;;;;;;-1.59;60.33;102819.34;105538;1270;25498;-54
2022/03/19 03:51:07;;;;;;;81.70;36.80;;;;;;;-1.58;60.35;102818.88;105703;1271;22687;-54
2022/03/19 03:53:39;;;;;;;89.30;37.00;;;;;;;-1.56;60.35;102819.05;105590;1270;23094;-54
2022/03/19 03:56:12;;;;;;;88.40;36.00;;;;;;;-1.51;60.46;102816.88;106463;1262;26048;-59
2022/03/19 03:58:46;;;;;;;93.20;40.60;;;;;;;-1.46;60.50;102815.53;106192;1270;22860;-59
2022/03/19 04:01:19;;;;;;;95.50;45.50;;;;;;;-1.40;60.42;102815.35;106041;1271;22601;-59
2022/03/19 04:03:50;;;;;;;87.00;40.70;;;;;;;-1.35;60.41;102816.23;106206;1271;22597;-58
2022/03/19 04:06:24;;;;;;;93.40;41.60;;;;;;;-1.31;60.56;102813.09;105939;1271;22770;-60
2022/03/19 04:08:56;;;;;;;90.20;42.00;;;;;;;-1.26;60.47;102815.41;105890;1271;22760;-58
2022/03/19 04:11:27;;;;;;;92.10;41.10;;;;;;;-1.23;60.68;102815.06;105938;1271;22677;-58
2022/03/19 04:13:59;;;;;;;92.80;40.20;;;;;;;-1.22;61.02;102817.73;106166;1271;23312;-59
2022/03/19 04:16:31;;;;;;;94.30;40.60;;;;;;;-1.23;61.06;102818.83;106187;1271;22545;-61
2022/03/19 04:19:03;;;;;;;89.10;40.60;;;;;;;-1.22;61.12;102815.08;106259;1271;22686;-60
2022/03/19 04:21:34;;;;;;;88.20;39.80;;;;;;;-1.23;61.01;102814.27;106136;1271;25528;-59
2022/03/19 04:24:06;;;;;;;89.70;41.80;;;;;;;-1.23;61.03;102811.20;106117;1271;22618;-56
2022/03/19 04:26:38;;;;;;;93.00;41.70;;;;;;;-1.23;60.74;102809.64;106135;1271;22742;-61
2022/03/19 04:29:10;;;;;;;90.80;43.30;;;;;;;-1.22;61.10;102810.69;106136;1271;22878;-57
2022/03/19 04:31:42;;;;;;;93.50;41.60;;;;;;;-1.23;61.10;102801.71;106252;1270;24214;-56
2022/03/19 04:34:13;;;;;;;91.80;42.00;;;;;;;-1.24;61.11;102800.83;106206;1271;22650;-60
2022/03/19 04:36:45;;;;;;;91.10;40.50;;;;;;;-1.26;61.07;102798.59;106171;1271;25592;-57
2022/03/19 04:39:18;;;;;;;92.10;40.30;;;;;;;-1.28;61.32;102796.15;105898;1271;479515;-58
2022/03/19 04:41:50;;;;;;;95.20;41.40;;;;;;;-1.30;61.59;102794.73;106197;1271;22706;-57
2022/03/19 04:44:23;;;;;;;91.00;39.80;;;;;;;-1.30;61.62;102798.48;105951;1271;24099;-53
2022/03/19 04:46:55;;;;;;;91.60;38.60;;;;;;;-1.29;61.74;102799.10;106144;1271;24018;-59
2022/03/19 04:49:27;;;;;;;97.50;41.40;;;;;;;-1.26;61.44;102802.73;106159;1271;24224;-59
2022/03/19 04:51:58;;;;;;;85.30;39.90;;;;;;;-1.21;61.67;102799.48;106334;1271;22866;-59
2022/03/19 04:54:31;;;;;;;100.80;39.90;;;;;;;-1.17;61.63;102798.43;106232;1271;24317;-56
2022/03/19 04:57:03;;;;;;;90.90;40.80;;;;;;;-1.13;61.86;102799.45;106082;1271;24853;-56
2022/03/19 04:59:35;;;;;;;96.80;41.30;;;;;;;-1.11;62.01;102802.10;106205;1271;24221;-58
2022/03/19 05:02:08;;;;;;;96.30;40.60;;;;;;;-1.10;61.99;102802.14;106493;1271;25906;-55
2022/03/19 05:04:40;;;;;;;93.90;42.00;;;;;;;-1.09;61.84;102800.38;106415;1271;25567;-56
2022/03/19 05:07:12;;;;;;;88.70;41.80;;;;;;;-1.06;61.94;102798.42;106074;1271;25453;-57
2022/03/19 05:12:36;;;;;;;87.00;41.50;;;;;;;-1.02;62.16;102798.25;105973;1271;22809;-58
2022/03/19 05:15:11;;;;;;;86.30;41.30;;;;;;;-1.02;62.14;102795.98;106097;1271;22660;-56
2022/03/19 05:17:44;;;;;;;84.80;37.80;;;;;;;-1.01;62.13;102802.36;106099;1271;24234;-59
2022/03/19 05:20:16;;;;;;;82.30;38.10;;;;;;;-0.98;62.11;102806.84;106053;1271;24781;-57
2022/03/19 05:22:48;;;;;;;85.00;38.10;;;;;;;-0.96;61.93;102808.18;106055;1271;22683;-56
2022/03/19 05:25:20;;;;;;;72.10;33.70;;;;;;;-0.94;61.90;102811.70;105988;1271;24274;-58
2022/03/19 05:27:52;;;;;;;82.90;36.60;;;;;;;-0.89;61.96;102811.64;106130;1271;24234;-57
2022/03/19 05:30:23;;;;;;;80.20;36.00;;;;;;;-0.85;62.02;102810.77;106095;1271;25512;-53
2022/03/19 05:32:56;;;;;;;78.00;33.60;;;;;;;-0.78;61.89;102818.50;105999;1271;22579;-58
2022/03/19 05:35:28;;;;;;;74.30;33.90;;;;;;;-0.75;62.00;102816.76;106035;1271;22682;-54
2022/03/19 05:38:00;;;;;;;80.00;36.40;;;;;;;-0.69;62.09;102812.01;106046;1271;26849;-59
2022/03/19 05:40:31;;;;;;;75.50;32.40;;;;;;;-0.66;62.08;102814.77;106002;1271;24759;-56
2022/03/19 05:43:03;;;;;;;84.40;35.10;;;;;;;-0.60;62.29;102820.84;106117;1271;25537;-56
2022/03/19 05:45:34;;;;;;;84.60;35.70;;;;;;;-0.55;62.37;102817.71;106011;1271;23357;-57
2022/03/19 05:48:07;;;;;;;84.40;37.20;;;;;;;-0.49;62.34;102823.33;106109;1271;22817;-56
2022/03/19 05:50:38;;;;;;;85.80;37.00;;;;;;;-0.42;62.29;102822.65;105814;1271;22909;-55
2022/03/19 05:53:10;;;;;;;86.50;38.40;;;;;;;-0.35;62.47;102820.44;105977;1271;24235;-56
2022/03/19 05:55:42;;;;;;;80.10;38.10;;;;;;;-0.27;62.52;102821.40;106011;1270;22613;-57
2022/03/19 05:58:13;;;;;;;81.90;39.00;;;;;;;-0.22;62.53;102819.86;106095;1271;24434;-56
2022/03/19 06:00:45;;;;;;;82.10;37.60;;;;;;;-0.16;62.60;102822.89;106001;1271;24375;-57
2022/03/19 06:03:16;;;;;;;79.50;37.40;;;;;;;-0.09;62.56;102824.66;106119;1271;22607;-58
2022/03/19 06:05:48;;;;;;;79.60;39.60;;;;;;;-0.04;62.71;102828.59;105889;1271;23049;-57
2022/03/19 06:08:20;;;;;;;85.40;39.00;;;;;;;0.01;62.65;102830.39;106020;1271;26753;-55
2022/03/19 06:10:52;;;;;;;87.50;41.10;;;;;;;0.05;62.53;102834.52;106115;1271;25406;-56
2022/03/19 06:13:23;;;;;;;91.10;41.90;;;;;;;0.09;62.56;102836.53;106146;1271;22720;-57
2022/03/19 06:15:56;;;;;;;80.40;39.30;;;;;;;0.14;62.50;102836.29;106015;1271;25919;-57
2022/03/19 06:18:27;;;;;;;79.10;36.80;;;;;;;0.19;62.51;102843.77;106286;1271;25593;-58
2022/03/19 06:21:00;;;;;;;80.70;38.30;;;;;;;0.25;62.37;102843.86;106118;1271;22685;-59
2022/03/19 06:23:31;;;;;;;88.20;37.10;;;;;;;0.32;62.41;102844.91;105966;1271;24232;-58
2022/03/19 06:26:03;;;;;;;77.50;37.90;;;;;;;0.38;62.42;102845.44;106262;1271;22666;-57
2022/03/19 06:28:34;;;;;;;71.30;33.50;;;;;;;0.47;62.13;102847.04;106093;1271;24245;-58
2022/03/19 06:31:06;;;;;;;60.80;27.20;;;;;;;0.56;61.60;102845.73;106237;1271;22628;-56
2022/03/19 06:33:39;;;;;;;67.10;29.00;;;;;;;0.64;61.43;102846.86;105991;1271;22698;-56
2022/03/19 06:39:02;;;;;;;55.10;23.00;;;;;;;0.78;60.46;102850.63;105993;1271;24401;-55
2022/03/19 06:41:35;;;;;;;55.70;25.70;;;;;;;0.86;60.12;102848.16;106062;1271;22922;-57
2022/03/19 06:44:07;;;;;;;48.60;21.90;;;;;;;0.91;59.95;102856.02;107521;1271;24257;-57
2022/03/19 06:46:40;;;;;;;45.40;21.90;;;;;;;0.99;59.64;102857.17;106159;1271;22728;-57
2022/03/19 06:49:12;;;;;;;47.00;21.80;;;;;;;1.03;59.01;102852.44;106371;1271;22722;-55
2022/03/19 06:51:44;;;;;;;50.90;20.50;;;;;;;1.09;59.06;102853.39;106198;1271;24036;-57
2022/03/19 06:54:16;;;;;;;46.20;19.60;;;;;;;1.16;58.36;102853.02;106018;1271;25790;-57
2022/03/19 06:56:49;;;;;;;51.10;21.20;;;;;;;1.21;58.47;102853.23;106173;1271;22630;-56
2022/03/19 06:59:20;;;;;;;36.60;16.60;;;;;;;1.25;58.38;102855.69;106174;1271;25638;-59
2022/03/19 07:01:52;;;;;;;43.50;20.10;;;;;;;1.29;58.13;102852.42;105835;1270;24345;-55
2022/03/19 07:04:24;;;;;;;46.70;20.90;;;;;;;1.34;57.94;102857.93;105909;1271;24305;-58
2022/03/19 07:06:56;;;;;;;45.60;20.20;;;;;;;1.41;57.94;102858.64;105899;1271;22690;-56
2022/03/19 07:09:28;;;;;;;48.70;23.00;;;;;;;1.46;57.68;102863.10;106116;1271;24200;-57
2022/03/19 07:12:00;;;;;;;54.00;22.50;;;;;;;1.47;57.43;102860.08;105972;1271;23350;-57
2022/03/19 07:14:31;;;;;;;49.00;22.20;;;;;;;1.47;57.31;102864.08;105908;1271;22590;-57
2022/03/19 07:17:03;;;;;;;46.50;22.10;;;;;;;1.45;57.43;102865.84;105833;1271;23013;-59
2022/03/19 07:19:35;;;;;;;47.90;20.80;;;;;;;1.46;57.30;102865.95;105983;1270;22559;-57
2022/03/19 07:22:07;;;;;;;53.70;22.70;;;;;;;1.49;57.56;102869.86;106057;1271;22715;-56
2022/03/19 07:24:40;;;;;;;53.80;24.10;;;;;;;1.50;57.05;102872.48;107217;1271;25724;-60
2022/03/19 07:27:12;;;;;;;52.50;24.00;;;;;;;1.50;56.52;102871.09;105950;1271;25541;-57
2022/03/19 07:29:43;;;;;;;55.90;25.50;;;;;;;1.52;56.69;102872.24;106135;1270;22849;-60
2022/03/19 07:32:15;;;;;;;53.60;24.20;;;;;;;1.55;56.47;102873.17;106009;1271;22570;-59
2022/03/19 07:34:47;;;;;;;52.10;25.00;;;;;;;1.61;56.19;102875.52;106049;1271;22531;-57
2022/03/19 07:37:19;;;;;;;58.60;26.10;;;;;;;1.68;56.03;102876.23;105955;1271;24150;-56
2022/03/19 07:39:51;;;;;;;56.00;25.10;;;;;;;1.73;56.07;102881.20;106001;1271;22727;-59
2022/03/19 07:42:23;;;;;;;54.40;25.60;;;;;;;1.78;55.83;102880.05;105918;1271;22595;-58
2022/03/19 07:44:54;;;;;;;47.90;24.00;;;;;;;1.84;55.93;102882.95;105997;1271;23864;-59
2022/03/19 07:47:26;;;;;;;52.80;23.80;;;;;;;1.89;55.71;102882.30;105834;1271;22535;-61
2022/03/19 07:49:58;;;;;;;56.80;25.40;;;;;;;1.94;55.50;102884.70;106020;1271;25938;-62
2022/03/19 07:52:32;;;;;;;51.60;25.50;;;;;;;1.98;55.19;102890.16;105861;1271;22806;-62
2022/03/19 07:55:04;;;;;;;53.80;25.00;;;;;;;2.03;54.99;102887.44;105746;1271;22836;-60
2022/03/19 07:57:36;;;;;;;56.10;25.80;;;;;;;2.10;54.82;102890.52;105782;1271;22694;-63
2022/03/19 08:00:12;;;;;;;56.30;24.20;;;;;;;2.16;54.80;102893.27;105748;1271;22556;-59
2022/03/19 08:02:44;;;;;;;54.10;24.10;;;;;;;2.24;54.46;102894.10;105861;1271;25690;-58
2022/03/19 08:05:16;;;;;;;58.90;27.40;;;;;;;2.32;54.74;102898.52;105900;1271;22613;-57
2022/03/19 08:07:48;;;;;;;58.50;30.60;;;;;;;2.38;54.33;102897.43;105828;1271;22689;-56
2022/03/19 08:10:19;;;;;;;57.00;27.60;;;;;;;2.45;54.29;102894.82;106100;1271;22903;-56
2022/03/19 08:12:51;;;;;;;58.30;29.00;;;;;;;2.51;53.99;102893.13;105970;1270;22663;-57
2022/03/19 08:15:23;;;;;;;58.90;28.40;;;;;;;2.58;53.59;102893.77;105966;1270;22846;-56
2022/03/19 08:17:55;;;;;;;52.00;29.00;;;;;;;2.65;53.22;102896.52;105802;1271;22682;-57
2022/03/19 08:20:27;;;;;;;55.30;27.20;;;;;;;2.73;53.11;102896.79;106019;1271;22693;-58
2022/03/19 08:22:58;;;;;;;51.00;24.50;;;;;;;2.82;52.73;102898.77;105934;1271;22699;-57
2022/03/19 08:25:30;;;;;;;53.60;25.40;;;;;;;2.88;52.46;102899.36;105910;1271;22722;-57
2022/03/19 08:28:02;;;;;;;48.50;22.40;;;;;;;2.91;52.14;102896.45;105856;1271;26580;-57
2022/03/19 08:30:34;;;;;;;48.80;23.60;;;;;;;2.97;52.11;102891.86;106060;1271;24357;-57
2022/03/19 08:33:06;;;;;;;47.40;22.40;;;;;;;3.03;51.94;102895.05;106237;1271;22712;-56
2022/03/19 08:35:38;;;;;;;47.00;19.90;;;;;;;3.13;51.51;102896.02;105866;1271;24416;-57
2022/03/19 08:41:00;;;;;;;38.40;18.70;;;;;;;3.32;51.10;102890.10;105807;1271;26658;-56
2022/03/19 08:43:32;;;;;;;38.10;17.00;;;;;;;3.42;51.03;102890.92;105955;1271;26693;-58
2022/03/19 08:46:05;;;;;;;43.00;19.30;;;;;;;3.51;50.40;102893.23;106202;1271;26569;-58
2022/03/19 08:48:38;;;;;;;37.00;17.20;;;;;;;3.63;50.12;102893.51;106061;1271;22558;-56
2022/03/19 08:54:05;;;;;;;34.80;14.10;;;;;;;3.79;49.41;102897.76;105812;1270;25321;-56
2022/03/19 08:56:39;;;;;;;35.30;14.10;;;;;;;3.87;49.06;102895.98;106132;1270;26873;-58
2022/03/19 08:59:12;;;;;;;41.10;16.70;;;;;;;3.95;48.77;102896.98;105894;1271;23770;-56
2022/03/19 09:01:47;;;;;;;42.00;17.90;;;;;;;4.03;48.93;102894.36;105941;1271;22569;-56
2022/03/19 09:04:21;;;;;;;40.30;16.80;;;;;;;4.13;48.41;102896.10;105949;1271;22694;-57
2022/03/19 09:06:54;;;;;;;36.70;15.70;;;;;;;4.25;48.24;102893.45;105917;1271;25233;-56
2022/03/19 09:09:25;;;;;;;33.30;15.10;;;;;;;4.32;47.45;102896.40;105936;1271;25213;-57
2022/03/19 09:11:59;;;;;;;37.30;15.50;;;;;;;4.41;47.45;102892.10;105914;1271;22528;-59
2022/03/19 09:14:31;;;;;;;31.90;13.90;;;;;;;4.49;47.23;102889.92;107007;1271;22551;-57
2022/03/19 09:17:05;;;;;;;38.40;16.00;;;;;;;4.54;47.01;102881.79;105901;1271;24416;-54
2022/03/19 09:19:39;;;;;;;46.90;18.10;;;;;;;4.61;47.25;102880.93;105975;1271;23093;-57
2022/03/19 09:22:14;;;;;;;38.60;15.10;;;;;;;4.71;46.60;102883.83;106057;1271;24376;-56
2022/03/19 09:24:48;;;;;;;39.50;15.60;;;;;;;4.81;46.68;102883.64;105776;1271;25517;-56
2022/03/19 09:27:20;;;;;;;39.10;14.30;;;;;;;4.89;46.33;102881.30;105827;1271;23306;-58
2022/03/19 09:29:55;;;;;;;39.60;15.40;;;;;;;4.98;45.88;102876.20;105891;1271;22594;-57
2022/03/19 09:32:28;;;;;;;29.80;12.00;;;;;;;5.09;45.73;102873.71;105766;1271;22560;-56
2022/03/19 09:35:00;;;;;;;41.60;16.50;;;;;;;5.20;45.04;102874.88;105971;1271;25264;-56
2022/03/19 09:37:32;;;;;;;26.50;11.00;;;;;;;5.27;44.37;102873.35;105755;1271;22590;-59
2022/03/19 09:40:05;;;;;;;28.00;10.30;;;;;;;5.34;44.14;102866.46;105962;1271;27117;-53
2022/03/19 09:42:47;;;;;;;24.80;9.30;;;;;;;5.39;43.36;102870.41;105899;1271;22541;-57
2022/03/19 09:45:21;;;;;;;29.40;11.00;;;;;;;5.47;43.57;102865.82;105939;1271;25351;-56
2022/03/19 09:47:55;;;;;;;27.00;10.40;;;;;;;5.53;43.41;102874.19;106100;1271;22538;-56
2022/03/19 09:50:27;;;;;;;26.10;9.90;;;;;;;5.57;43.12;102867.51;106000;1271;23392;-55
2022/03/19 09:53:01;;;;;;;29.20;11.90;;;;;;;5.64;43.25;102867.40;105963;1271;22533;-55
2022/03/19 09:55:34;;;;;;;22.70;8.70;;;;;;;5.69;43.00;102864.99;105802;1271;25479;-56
2022/03/19 09:58:06;;;;;;;23.30;8.90;;;;;;;5.76;42.17;102864.89;105865;1271;26978;-54
2022/03/19 10:00:37;;;;;;;22.90;8.90;;;;;;;5.81;41.83;102868.66;105901;1271;22557;-58
2022/03/19 10:03:12;;;;;;;27.00;9.30;;;;;;;5.85;41.67;102866.59;105905;1270;25384;-55
2022/03/19 10:08:39;;;;;;;21.20;7.60;;;;;;;5.99;41.61;102869.86;105852;1271;27082;-53
2022/03/19 10:11:14;;;;;;;21.60;7.90;;;;;;;6.08;41.35;102866.93;105786;1272;22729;-56
2022/03/19 10:13:48;;;;;;;22.70;9.10;;;;;;;6.17;41.11;102864.69;105917;1271;22532;-55
2022/03/19 10:16:24;;;;;;;21.80;8.00;;;;;;;6.24;40.82;102869.26;106231;1262;23746;-56
2022/03/19 10:19:00;;;;;;;28.30;10.30;;;;;;;6.31;40.55;102870.19;105989;1271;22532;-58
2022/03/19 10:21:40;;;;;;;25.10;9.50;;;;;;;6.35;40.08;102866.96;105871;1270;22563;-59
2022/03/19 10:24:24;;;;;;;25.90;8.50;;;;;;;6.36;40.53;102869.81;105879;1270;22565;-59
2022/03/19 10:26:57;;;;;;;24.70;9.40;;;;;;;6.43;40.20;102865.82;105862;1270;22572;-56
2022/03/19 10:29:35;;;;;;;24.60;9.30;;;;;;;6.47;40.21;102864.11;105855;1270;24369;-58
2022/03/19 10:32:08;;;;;;;20.20;7.80;;;;;;;6.51;39.73;102867.85;105811;1270;25404;-57
2022/03/19 10:34:41;;;;;;;28.00;8.70;;;;;;;6.54;39.46;102863.66;105971;1270;22541;-57
2022/03/19 10:37:30;;;;;;;26.30;10.00;;;;;;;6.54;38.66;102866.04;105871;1271;24376;-56
2022/03/19 10:40:03;;;;;;;22.20;8.90;;;;;;;6.55;38.83;102864.15;105769;1270;22528;-57
2022/03/19 10:42:41;;;;;;;27.40;9.00;;;;;;;6.56;39.00;102865.48;106023;1270;22548;-57
2022/03/19 10:45:21;;;;;;;22.30;9.40;;;;;;;6.62;39.23;102864.89;105901;1271;25484;-58
2022/03/19 10:47:54;;;;;;;26.70;9.60;;;;;;;6.65;39.01;102862.21;105896;1270;24390;-57
2022/03/19 10:50:27;;;;;;;25.50;9.90;;;;;;;6.71;38.47;102859.39;106066;1270;22623;-55
2022/03/19 10:53:00;;;;;;;24.60;9.40;;;;;;;6.74;38.34;102861.07;106149;1271;22726;-57
2022/03/19 10:55:34;;;;;;;20.20;7.80;;;;;;;6.77;38.12;102856.72;106019;1270;25380;-56
2022/03/19 10:58:11;;;;;;;23.40;8.20;;;;;;;6.82;38.10;102854.84;106071;1271;24613;-58
2022/03/19 11:00:47;;;;;;;19.70;7.50;;;;;;;6.85;37.11;102853.27;105963;1270;22704;-57
2022/03/19 11:03:24;;;;;;;23.10;7.90;;;;;;;6.86;37.39;102848.59;105845;1271;22564;-59
2022/03/19 11:06:05;;;;;;;23.80;8.90;;;;;;;6.92;37.77;102846.47;105900;1271;25353;-54
2022/03/19 11:08:39;;;;;;;23.40;8.10;;;;;;;6.96;37.15;102844.73;105853;1270;22523;-58
2022/03/19 11:11:17;;;;;;;23.00;8.40;;;;;;;7.00;37.00;102836.58;105970;1271;24414;-55
2022/03/19 11:13:50;;;;;;;21.30;9.20;;;;;;;7.01;37.26;102836.42;105815;1271;24250;-56
2022/03/19 11:16:23;;;;;;;23.70;9.00;;;;;;;7.03;37.11;102834.68;105785;1270;22656;-58
2022/03/19 11:18:55;;;;;;;23.90;9.00;;;;;;;7.05;36.64;102838.09;105883;1270;22584;-62
2022/03/19 11:21:28;;;;;;;26.50;9.80;;;;;;;7.08;37.23;102837.47;105892;1270;24263;-56
2022/03/19 11:24:10;;;;;;;19.90;8.90;;;;;;;7.19;37.45;102830.84;105911;1270;22564;-54
2022/03/19 11:26:43;;;;;;;21.00;8.30;;;;;;;7.23;36.28;102826.79;105878;1270;22897;-58
2022/03/19 11:29:16;;;;;;;23.10;8.80;;;;;;;7.25;36.68;102828.15;105943;1271;24233;-57
2022/03/19 11:32:01;;;;;;;21.70;8.60;;;;;;;7.24;36.02;102827.98;105920;1270;25427;-59
2022/03/19 11:34:48;;;;;;;22.40;9.20;;;;;;;7.24;36.00;102823.70;105946;1271;23975;-59
2022/03/19 11:37:20;;;;;;;26.90;9.10;;;;;;;7.25;36.01;102824.98;107275;1270;22573;-59
2022/03/19 11:40:32;;;;;;;22.50;9.20;;;;;;;7.27;36.02;102812.13;105899;1271;22615;-63
2022/03/19 11:43:07;;;;;;;23.00;9.40;;;;;;;7.32;35.59;102816.33;106009;1271;24534;-58
2022/03/19 11:45:54;;;;;;;29.80;11.40;;;;;;;7.32;35.70;102809.34;105872;1271;25564;-55
2022/03/19 11:48:45;;;;;;;21.80;8.70;;;;;;;7.33;35.54;102806.25;106220;1271;22538;-58
2022/03/19 11:51:28;;;;;;;25.80;9.70;;;;;;;7.34;35.30;102804.11;106143;1270;22547;-59